Time;durP1;ratioP1;P1;durP2;ratioP2;P2;SDS_P1;SDS_P2;PMS_P1;PMS_P2;Temp;Humidity;BMP_temperature;BMP_pressure;BME280_temperature;BME280_humidity;BME280_pressure;Samples;Min_cycle;Max_cycle;Signal;HPM_P1;HPM_P2
2021/06/16 00:00:14;;;;;;;18.25;12.82;;;11.70;92.80;;;;;;4994490;28;20033;-73
2021/06/16 00:02:41;;;;;;;19.42;13.68;;;11.70;93.10;;;;;;4987368;28;20130;-71
2021/06/16 00:05:11;;;;;;;18.20;13.27;;;11.80;92.70;;;;;;4993814;28;20018;-69
2021/06/16 00:07:38;;;;;;;18.67;14.55;;;11.90;92.50;;;;;;4993693;28;20022;-73
2021/06/16 00:10:06;;;;;;;20.25;14.52;;;12.10;92.20;;;;;;4994040;28;20450;-68
2021/06/16 00:12:34;;;;;;;19.77;13.20;;;12.20;91.80;;;;;;4993361;28;20023;-69
2021/06/16 00:15:05;;;;;;;17.10;12.15;;;12.40;91.40;;;;;;4993260;28;20484;-68
2021/06/16 00:17:32;;;;;;;15.75;10.07;;;12.40;91.20;;;;;;4991190;28;20077;-69
2021/06/16 00:19:59;;;;;;;18.60;12.43;;;12.70;90.50;;;;;;4994020;28;20440;-74
2021/06/16 00:22:26;;;;;;;17.23;11.57;;;12.80;90.40;;;;;;4993569;28;20019;-73
2021/06/16 00:24:53;;;;;;;15.88;11.05;;;12.90;90.10;;;;;;4990482;28;20034;-72
2021/06/16 00:27:20;;;;;;;16.92;11.13;;;13.10;89.20;;;;;;4993117;28;20033;-67
2021/06/16 00:29:47;;;;;;;16.15;11.68;;;13.10;88.30;;;;;;4975588;28;20096;-71
2021/06/16 00:32:14;;;;;;;15.70;10.18;;;13.20;88.30;;;;;;4993319;28;20485;-71
2021/06/16 00:34:41;;;;;;;15.85;10.93;;;13.20;88.70;;;;;;4993388;28;20420;-72
2021/06/16 00:37:08;;;;;;;12.32;10.27;;;13.30;87.30;;;;;;4990647;28;20417;-70
2021/06/16 00:39:35;;;;;;;12.48;8.90;;;13.40;87.40;;;;;;4990895;28;20022;-70
2021/06/16 00:42:02;;;;;;;11.85;9.05;;;13.60;86.40;;;;;;4988957;28;20108;-65
2021/06/16 00:44:29;;;;;;;23.92;17.40;;;13.80;86.10;;;;;;4989481;28;20493;-66
2021/06/16 00:46:56;;;;;;;25.05;16.90;;;14.00;86.70;;;;;;4988964;28;20178;-68
2021/06/16 00:49:23;;;;;;;12.75;9.60;;;14.30;89.50;;;;;;4989101;28;20030;-73
2021/06/16 00:51:50;;;;;;;10.02;7.80;;;14.50;86.00;;;;;;4988146;28;20030;-66
2021/06/16 00:54:17;;;;;;;11.02;8.15;;;14.60;83.10;;;;;;4987499;28;20031;-71
2021/06/16 00:56:45;;;;;;;11.52;7.70;;;14.80;83.80;;;;;;4987794;28;20026;-71
2021/06/16 00:59:12;;;;;;;11.05;8.57;;;14.90;84.10;;;;;;4988074;28;20244;-74
2021/06/16 01:01:49;;;;;;;11.15;7.90;;;15.00;83.30;;;;;;4986340;28;20432;-70
2021/06/16 01:04:22;;;;;;;10.57;7.50;;;15.00;80.90;;;;;;4983942;28;20106;-73
2021/06/16 01:07:14;;;;;;;8.13;6.65;;;15.00;81.80;;;;;;4988635;28;20019;-68
2021/06/16 01:10:03;;;;;;;7.93;6.70;;;15.30;81.20;;;;;;4975384;28;20555;-66
2021/06/16 01:12:32;;;;;;;7.68;6.13;;;15.50;81.60;;;;;;4982571;28;20034;-66
2021/06/16 01:15:26;;;;;;;8.07;6.10;;;15.50;79.40;;;;;;4984054;28;20042;-68
2021/06/16 01:17:53;;;;;;;11.90;6.47;;;15.70;80.80;;;;;;4984156;28;20050;-75
2021/06/16 01:20:37;;;;;;;8.80;5.60;;;15.90;81.80;;;;;;4983990;28;20032;-75
2021/06/16 01:23:13;;;;;;;16.35;12.10;;;16.00;81.10;;;;;;4956949;28;20069;-67
2021/06/16 01:25:57;;;;;;;8.45;7.03;;;16.00;76.80;;;;;;4985668;28;20018;-72
2021/06/16 01:28:27;;;;;;;9.80;6.03;;;16.00;79.80;;;;;;4982359;28;20051;-71
2021/06/16 01:30:55;;;;;;;10.05;6.85;;;16.10;77.90;;;;;;4985351;28;20018;-65
2021/06/16 01:33:24;;;;;;;8.93;7.05;;;16.30;76.10;;;;;;4983690;28;20077;-73
2021/06/16 01:35:55;;;;;;;10.32;7.13;;;16.40;75.20;;;;;;4986304;28;20385;-74
2021/06/16 01:38:23;;;;;;;7.70;5.70;;;16.40;76.00;;;;;;4983051;28;20015;-72
2021/06/16 01:40:54;;;;;;;6.78;4.85;;;16.70;79.30;;;;;;4982111;28;20026;-71
2021/06/16 01:43:23;;;;;;;6.68;4.10;;;16.70;72.70;;;;;;4984019;28;20021;-72
2021/06/16 01:45:51;;;;;;;13.02;4.97;;;17.00;78.40;;;;;;4985084;28;20596;-73
2021/06/16 01:48:20;;;;;;;8.88;4.25;;;17.20;76.90;;;;;;4985681;28;20030;-68
2021/06/16 01:50:51;;;;;;;6.60;5.72;;;17.30;75.00;;;;;;4986811;28;20138;-73
2021/06/16 01:53:20;;;;;;;7.38;4.60;;;17.50;73.40;;;;;;4984819;28;20033;-73
2021/06/16 01:55:48;;;;;;;6.95;4.28;;;17.30;72.20;;;;;;4985917;28;20042;-68
2021/06/16 01:58:18;;;;;;;7.47;5.75;;;17.40;73.60;;;;;;4980963;28;20025;-69
2021/06/16 02:00:46;;;;;;;7.60;4.50;;;17.40;73.20;;;;;;4965303;28;20031;-73
2021/06/16 02:03:13;;;;;;;6.15;3.70;;;17.50;70.50;;;;;;4985425;28;20519;-73
2021/06/16 02:05:40;;;;;;;4.13;3.00;;;17.50;70.70;;;;;;4985947;28;20023;-72
2021/06/16 02:08:14;;;;;;;5.57;3.08;;;17.50;69.60;;;;;;4966990;28;20026;-74
2021/06/16 02:10:46;;;;;;;6.20;3.47;;;17.60;70.60;;;;;;4983286;28;20019;-74
2021/06/16 02:13:15;;;;;;;5.30;3.10;;;17.70;70.10;;;;;;4985333;28;20038;-68
2021/06/16 02:15:53;;;;;;;3.45;2.63;;;17.80;71.60;;;;;;4984693;28;20416;-67
2021/06/16 02:18:26;;;;;;;6.63;2.88;;;17.90;70.00;;;;;;4983564;28;20019;-71
2021/06/16 02:20:53;;;;;;;4.15;2.60;;;18.10;69.40;;;;;;4986042;28;20105;-71
2021/06/16 02:23:23;;;;;;;3.70;2.45;;;18.00;68.40;;;;;;4983864;28;20018;-70
2021/06/16 02:25:50;;;;;;;4.13;2.60;;;18.00;67.20;;;;;;4986400;28;20477;-72
2021/06/16 02:28:17;;;;;;;3.15;2.70;;;18.10;68.10;;;;;;4985976;28;20264;-73
2021/06/16 02:30:44;;;;;;;3.50;2.60;;;18.20;68.40;;;;;;4984716;28;20035;-72
2021/06/16 02:33:11;;;;;;;3.97;2.38;;;18.30;66.80;;;;;;4985204;28;20018;-72
2021/06/16 02:35:38;;;;;;;4.95;3.00;;;18.60;65.50;;;;;;4985311;28;20014;-69
2021/06/16 02:38:12;;;;;;;4.30;2.50;;;18.60;65.20;;;;;;4964789;28;20023;-71
2021/06/16 02:40:42;;;;;;;4.28;2.40;;;18.50;63.50;;;;;;4983044;28;20023;-71
2021/06/16 02:43:09;;;;;;;5.40;4.25;;;18.50;64.60;;;;;;4983480;28;20034;-71
2021/06/16 02:45:41;;;;;;;3.85;2.20;;;18.60;65.80;;;;;;4984170;28;20469;-73
2021/06/16 02:48:08;;;;;;;4.40;2.13;;;18.70;64.10;;;;;;4988175;28;20026;-71
2021/06/16 02:50:37;;;;;;;2.83;2.10;;;18.80;63.30;;;;;;4970435;28;20066;-73
2021/06/16 02:53:09;;;;;;;3.28;2.45;;;18.80;64.30;;;;;;4987318;28;20014;-73
2021/06/16 02:55:40;;;;;;;4.25;2.42;;;18.80;63.70;;;;;;4986117;28;20484;-72
2021/06/16 02:58:09;;;;;;;3.30;1.85;;;18.90;64.70;;;;;;4988588;28;20027;-71
2021/06/16 03:00:37;;;;;;;2.72;1.90;;;19.00;62.80;;;;;;4987899;28;20434;-73
2021/06/16 03:03:06;;;;;;;5.00;2.17;;;18.90;61.90;;;;;;4980006;28;20018;-74
2021/06/16 03:05:33;;;;;;;4.40;2.22;;;18.90;61.30;;;;;;4989562;28;20472;-73
2021/06/16 03:08:01;;;;;;;2.13;1.70;;;18.80;62.20;;;;;;4987137;28;20500;-74
2021/06/16 03:10:30;;;;;;;3.85;1.88;;;19.00;62.80;;;;;;4965733;28;20026;-74
2021/06/16 03:12:59;;;;;;;4.30;2.15;;;19.20;62.30;;;;;;4985864;28;20436;-73
2021/06/16 03:15:27;;;;;;;4.88;1.73;;;19.30;61.60;;;;;;4987712;28;20041;-73
2021/06/16 03:17:56;;;;;;;2.83;1.58;;;19.30;59.50;;;;;;4966229;28;20386;-69
2021/06/16 03:20:26;;;;;;;5.45;1.90;;;19.30;58.80;;;;;;4986684;28;21582;-69
2021/06/16 03:22:56;;;;;;;2.67;1.83;;;19.30;59.70;;;;;;4988947;28;20023;-69
2021/06/16 03:25:24;;;;;;;4.07;2.25;;;19.20;59.90;;;;;;4988220;28;20023;-69
2021/06/16 03:27:52;;;;;;;6.05;2.58;;;19.20;61.70;;;;;;4987222;28;20101;-68
2021/06/16 03:30:22;;;;;;;8.20;6.57;;;19.30;60.90;;;;;;4986570;28;20022;-75
2021/06/16 03:32:55;;;;;;;3.75;2.45;;;19.40;61.70;;;;;;4988539;28;20027;-75
2021/06/16 03:35:23;;;;;;;3.42;2.40;;;19.40;59.90;;;;;;4986278;28;20023;-73
2021/06/16 03:37:52;;;;;;;4.75;2.30;;;19.40;59.90;;;;;;4989647;28;20094;-69
2021/06/16 03:40:24;;;;;;;4.93;2.90;;;19.50;62.00;;;;;;4984957;28;20038;-73
2021/06/16 03:42:52;;;;;;;5.47;3.17;;;19.60;62.60;;;;;;4984369;28;20058;-75
2021/06/16 03:45:19;;;;;;;4.47;3.20;;;19.60;61.50;;;;;;4988016;28;20097;-74
2021/06/16 03:47:47;;;;;;;4.07;2.80;;;19.40;61.20;;;;;;4984527;28;20023;-74
2021/06/16 03:50:24;;;;;;;5.35;3.17;;;19.30;62.10;;;;;;4987725;28;20462;-74
2021/06/16 03:52:52;;;;;;;3.85;2.92;;;19.20;63.60;;;;;;4985928;28;20537;-75
2021/06/16 03:55:20;;;;;;;4.18;2.95;;;19.10;63.90;;;;;;4984242;28;20085;-67
2021/06/16 03:57:48;;;;;;;3.90;3.05;;;19.00;62.80;;;;;;4985556;28;20030;-75
2021/06/16 04:00:16;;;;;;;4.80;2.70;;;18.90;65.60;;;;;;4985939;28;20022;-68
2021/06/16 04:02:45;;;;;;;4.88;2.78;;;19.10;65.00;;;;;;4989084;28;20023;-71
2021/06/16 04:05:12;;;;;;;5.18;3.08;;;19.40;63.80;;;;;;4986125;28;20386;-70
2021/06/16 04:07:40;;;;;;;4.40;3.35;;;19.60;62.40;;;;;;4988320;28;20104;-69
2021/06/16 04:10:07;;;;;;;5.50;2.88;;;19.80;62.80;;;;;;4986161;28;20022;-74
2021/06/16 04:12:34;;;;;;;4.75;3.58;;;20.10;61.50;;;;;;4983761;28;20023;-67
2021/06/16 04:15:04;;;;;;;3.88;2.60;;;20.30;61.20;;;;;;4985416;28;20359;-68
2021/06/16 04:17:31;;;;;;;3.70;2.42;;;20.60;61.80;;;;;;4987901;28;20102;-68
2021/06/16 04:19:58;;;;;;;3.78;2.25;;;20.70;59.50;;;;;;4966198;28;20488;-68
2021/06/16 04:22:25;;;;;;;2.97;2.38;;;20.60;60.30;;;;;;4981976;28;20489;-67
2021/06/16 04:24:52;;;;;;;4.97;2.13;;;20.30;60.50;;;;;;4984747;28;20036;-68
2021/06/16 04:27:19;;;;;;;3.92;2.65;;;20.10;61.20;;;;;;4988266;28;20440;-68
2021/06/16 04:29:45;;;;;;;3.45;2.35;;;19.80;63.10;;;;;;4966649;28;20464;-73
2021/06/16 04:32:13;;;;;;;4.70;2.40;;;19.50;63.00;;;;;;4985241;28;20029;-74
2021/06/16 04:34:41;;;;;;;3.13;2.45;;;19.10;66.20;;;;;;4986977;28;20070;-75
2021/06/16 04:37:09;;;;;;;4.22;2.78;;;18.90;66.70;;;;;;4985773;28;20038;-73
2021/06/16 04:39:36;;;;;;;3.63;2.35;;;18.80;66.00;;;;;;4984751;28;20029;-67
2021/06/16 04:42:03;;;;;;;2.65;2.45;;;18.70;65.60;;;;;;4967393;28;20064;-75
2021/06/16 04:44:30;;;;;;;2.45;2.03;;;18.80;65.10;;;;;;4985520;28;20027;-69
2021/06/16 04:46:58;;;;;;;3.92;2.08;;;19.10;66.60;;;;;;4984275;28;20023;-67
2021/06/16 04:49:26;;;;;;;1.73;1.40;;;19.30;65.50;;;;;;4986111;28;20513;-74
2021/06/16 04:51:53;;;;;;;4.07;1.95;;;19.30;65.20;;;;;;4983457;28;20377;-67
2021/06/16 04:54:20;;;;;;;1.65;1.50;;;19.40;65.50;;;;;;4967512;28;20042;-66
2021/06/16 04:56:47;;;;;;;3.42;1.40;;;19.30;64.30;;;;;;4986176;28;20193;-72
2021/06/16 04:59:14;;;;;;;6.13;1.58;;;19.20;64.00;;;;;;4987519;28;20030;-72
2021/06/16 05:01:41;;;;;;;3.25;1.55;;;19.10;65.60;;;;;;4983762;28;20015;-67
2021/06/16 05:04:08;;;;;;;3.42;1.42;;;18.90;67.60;;;;;;4986017;28;20052;-75
2021/06/16 05:06:35;;;;;;;4.18;1.85;;;18.70;67.60;;;;;;4987369;28;20022;-67
2021/06/16 05:09:02;;;;;;;2.50;1.52;;;18.60;68.00;;;;;;4985718;28;20050;-75
2021/06/16 05:11:29;;;;;;;2.90;1.50;;;18.40;69.30;;;;;;4984916;28;20478;-67
2021/06/16 05:13:56;;;;;;;4.22;1.20;;;18.30;69.00;;;;;;4983848;28;20050;-73
2021/06/16 05:16:23;;;;;;;2.35;1.60;;;18.30;67.50;;;;;;4985914;28;20074;-72
2021/06/16 05:18:50;;;;;;;3.55;1.75;;;18.10;67.60;;;;;;4985639;28;20495;-68
2021/06/16 05:21:18;;;;;;;3.15;1.90;;;18.10;67.70;;;;;;4986004;28;20161;-68
2021/06/16 05:23:47;;;;;;;5.78;4.05;;;18.30;67.20;;;;;;4986181;28;20018;-69
2021/06/16 05:26:15;;;;;;;2.35;1.42;;;18.60;67.20;;;;;;4986282;28;20354;-68
2021/06/16 05:28:42;;;;;;;2.10;1.30;;;19.10;65.70;;;;;;4985487;28;20031;-76
2021/06/16 05:31:09;;;;;;;1.88;1.52;;;19.50;65.70;;;;;;4984022;28;20033;-71
2021/06/16 05:33:37;;;;;;;3.47;1.30;;;19.90;66.90;;;;;;4983807;28;20038;-73
2021/06/16 05:36:07;;;;;;;2.47;1.17;;;20.00;66.80;;;;;;4986768;28;20100;-68
2021/06/16 05:38:35;;;;;;;4.53;1.13;;;20.30;66.90;;;;;;4987719;28;20026;-72
2021/06/16 05:41:03;;;;;;;3.63;1.15;;;20.50;65.80;;;;;;4967051;28;20033;-74
2021/06/16 05:43:32;;;;;;;1.73;1.20;;;20.30;64.60;;;;;;4986607;28;20473;-72
2021/06/16 05:46:01;;;;;;;2.22;1.20;;;20.30;64.80;;;;;;4982806;28;20061;-71
2021/06/16 05:48:28;;;;;;;2.88;1.35;;;20.00;65.00;;;;;;4985191;28;20022;-71
2021/06/16 05:50:56;;;;;;;3.05;1.40;;;19.80;66.00;;;;;;4985863;28;20037;-68
2021/06/16 05:53:23;;;;;;;9.75;6.80;;;19.30;66.30;;;;;;4983445;28;20021;-69
2021/06/16 05:55:49;;;;;;;4.97;2.90;;;18.60;68.80;;;;;;4983180;28;20018;-69
2021/06/16 05:58:16;;;;;;;4.10;2.10;;;18.10;70.40;;;;;;4983870;28;20039;-66
2021/06/16 06:00:43;;;;;;;4.38;1.95;;;17.70;71.60;;;;;;4985804;28;20027;-66
2021/06/16 06:03:10;;;;;;;2.50;1.77;;;17.40;72.20;;;;;;4986060;28;20030;-72
2021/06/16 06:05:37;;;;;;;5.85;2.00;;;17.20;73.00;;;;;;4979731;28;20025;-73
2021/06/16 06:08:05;;;;;;;2.28;1.88;;;17.00;73.90;;;;;;4984453;28;20030;-69
2021/06/16 06:10:31;;;;;;;3.28;1.70;;;16.80;75.30;;;;;;4986169;28;20045;-68
2021/06/16 06:12:58;;;;;;;2.85;1.50;;;16.60;76.40;;;;;;4983836;28;20026;-67
2021/06/16 06:15:25;;;;;;;3.72;1.85;;;16.50;77.50;;;;;;4977080;28;20026;-68
2021/06/16 06:17:53;;;;;;;2.85;1.88;;;16.50;78.10;;;;;;4982572;28;20026;-72
2021/06/16 06:20:20;;;;;;;2.08;1.48;;;16.40;78.50;;;;;;4983222;28;20019;-66
2021/06/16 06:22:47;;;;;;;3.47;1.52;;;16.40;79.30;;;;;;4983930;28;20082;-66
2021/06/16 06:25:14;;;;;;;3.97;1.50;;;16.30;79.60;;;;;;4981934;28;20101;-69
2021/06/16 06:27:41;;;;;;;2.20;1.60;;;16.20;80.40;;;;;;4982219;28;20058;-73
2021/06/16 06:30:09;;;;;;;6.25;2.83;;;16.00;81.00;;;;;;4984856;28;20043;-70
2021/06/16 06:32:36;;;;;;;3.60;1.50;;;16.00;80.80;;;;;;4982133;28;20022;-73
2021/06/16 06:35:04;;;;;;;4.57;2.08;;;15.90;81.40;;;;;;4983655;28;20031;-69
2021/06/16 06:37:31;;;;;;;2.30;1.60;;;15.80;81.90;;;;;;4983890;28;20113;-67
2021/06/16 06:39:58;;;;;;;3.45;1.55;;;15.70;82.30;;;;;;4985599;28;20045;-73
2021/06/16 06:42:24;;;;;;;4.50;1.70;;;15.70;82.60;;;;;;4966197;28;20077;-73
2021/06/16 06:44:51;;;;;;;3.92;1.80;;;15.60;82.60;;;;;;4969136;28;20030;-70
2021/06/16 06:47:18;;;;;;;3.38;1.73;;;15.70;83.30;;;;;;4981686;28;20106;-73
2021/06/16 06:49:45;;;;;;;5.05;1.50;;;15.70;83.90;;;;;;4984112;28;20061;-73
2021/06/16 06:52:12;;;;;;;2.47;1.50;;;15.60;83.70;;;;;;4978343;28;20117;-66
2021/06/16 06:54:40;;;;;;;2.15;1.40;;;15.50;84.60;;;;;;4982635;28;20023;-67
2021/06/16 06:57:07;;;;;;;4.30;2.25;;;15.50;84.60;;;;;;4981207;28;20027;-68
2021/06/16 06:59:35;;;;;;;2.92;2.20;;;15.50;84.40;;;;;;4984932;28;20033;-73
2021/06/16 07:02:02;;;;;;;5.25;2.15;;;15.40;85.20;;;;;;4981734;28;20058;-69
2021/06/16 07:04:29;;;;;;;5.63;2.30;;;15.20;85.40;;;;;;4985081;28;20057;-67
2021/06/16 07:06:56;;;;;;;3.00;2.45;;;15.10;86.40;;;;;;4984206;28;20027;-67
2021/06/16 07:09:24;;;;;;;5.38;2.50;;;15.00;86.70;;;;;;4979619;28;20018;-65
2021/06/16 07:11:52;;;;;;;3.92;2.25;;;15.00;87.00;;;;;;4984059;28;20030;-68
2021/06/16 07:14:19;;;;;;;4.20;2.22;;;14.80;88.00;;;;;;4985006;28;20022;-69
2021/06/16 07:16:46;;;;;;;3.53;2.45;;;14.70;88.70;;;;;;4983196;28;20038;-68
2021/06/16 07:19:13;;;;;;;4.70;2.70;;;14.60;89.40;;;;;;4985918;28;20026;-66
2021/06/16 07:21:40;;;;;;;4.97;2.88;;;14.50;90.10;;;;;;4982532;28;20505;-69
2021/06/16 07:24:09;;;;;;;9.93;5.53;;;14.50;90.00;;;;;;4985053;28;20161;-66
2021/06/16 07:26:36;;;;;;;68.50;51.63;;;14.40;90.10;;;;;;4985671;28;20026;-68
2021/06/16 07:29:03;;;;;;;10.10;8.48;;;14.30;90.40;;;;;;4981709;28;20080;-71
2021/06/16 07:31:30;;;;;;;11.05;7.35;;;14.20;90.70;;;;;;4982726;28;20503;-65
2021/06/16 07:33:57;;;;;;;6.60;4.63;;;14.20;90.90;;;;;;4982796;28;20042;-65
2021/06/16 07:36:24;;;;;;;10.27;3.97;;;14.10;91.10;;;;;;4985398;28;20049;-64
2021/06/16 07:38:51;;;;;;;7.38;3.65;;;14.10;91.30;;;;;;4987170;28;20019;-72
2021/06/16 07:41:18;;;;;;;8.40;5.88;;;14.20;91.10;;;;;;4986161;28;20141;-68
2021/06/16 07:43:45;;;;;;;5.15;2.80;;;14.10;91.30;;;;;;4987755;28;20029;-67
2021/06/16 07:46:12;;;;;;;7.82;4.13;;;14.10;91.30;;;;;;4986298;28;20042;-69
2021/06/16 07:48:39;;;;;;;6.97;4.22;;;14.10;91.40;;;;;;4985465;28;20156;-69
2021/06/16 07:51:06;;;;;;;5.75;4.50;;;14.00;91.30;;;;;;4985245;28;20054;-68
2021/06/16 07:53:33;;;;;;;8.77;4.78;;;14.00;91.60;;;;;;4988184;28;20037;-72
2021/06/16 07:56:00;;;;;;;6.18;3.70;;;13.90;91.80;;;;;;4985998;28;20070;-67
2021/06/16 07:58:27;;;;;;;4.60;3.28;;;13.90;91.80;;;;;;4984892;28;20017;-71
2021/06/16 08:00:54;;;;;;;6.45;3.20;;;13.90;92.00;;;;;;4987600;28;20030;-68
2021/06/16 08:03:22;;;;;;;5.90;3.17;;;13.80;92.00;;;;;;4971790;28;20031;-67
2021/06/16 08:05:50;;;;;;;4.32;3.40;;;13.80;92.20;;;;;;4983905;28;20018;-66
2021/06/16 08:08:18;;;;;;;7.70;3.65;;;13.70;92.30;;;;;;4299846;28;10000565;-66
2021/06/16 08:10:45;;;;;;;7.22;4.00;;;13.60;92.50;;;;;;4984127;28;20028;-66
2021/06/16 08:13:12;;;;;;;7.18;4.45;;;13.60;92.50;;;;;;4990829;28;20030;-67
2021/06/16 08:15:39;;;;;;;14.77;6.40;;;13.60;92.70;;;;;;4990952;28;20137;-66
2021/06/16 08:18:07;;;;;;;11.70;5.35;;;13.80;92.90;;;;;;4989963;28;20030;-69
2021/06/16 08:20:34;;;;;;;13.57;5.15;;;13.90;92.60;;;;;;4990770;28;20366;-65
2021/06/16 08:23:03;;;;;;;12.93;5.88;;;14.00;92.10;;;;;;4990352;28;20026;-66
2021/06/16 08:25:30;;;;;;;13.10;4.25;;;14.10;92.10;;;;;;4990746;28;20069;-66
2021/06/16 08:27:57;;;;;;;9.95;3.80;;;14.10;91.90;;;;;;4990807;28;20485;-71
2021/06/16 08:30:24;;;;;;;8.55;4.10;;;14.00;91.80;;;;;;4990719;28;20125;-71
2021/06/16 08:32:51;;;;;;;6.97;3.42;;;14.00;91.70;;;;;;4990426;28;20030;-71
2021/06/16 08:35:18;;;;;;;10.77;4.07;;;14.00;91.80;;;;;;4990538;28;20030;-66
2021/06/16 08:37:46;;;;;;;12.02;4.15;;;14.00;91.90;;;;;;4987210;28;20025;-66
2021/06/16 08:40:15;;;;;;;13.27;4.15;;;14.10;91.80;;;;;;4990178;28;20060;-70
2021/06/16 08:42:43;;;;;;;7.75;4.03;;;14.00;91.70;;;;;;4990180;28;20034;-70
2021/06/16 08:45:11;;;;;;;13.15;8.13;;;14.00;91.70;;;;;;4989211;28;20022;-71
2021/06/16 08:47:38;;;;;;;15.02;5.05;;;14.20;92.60;;;;;;4989432;28;20034;-70
2021/06/16 08:50:10;;;;;;;10.20;4.20;;;14.20;92.30;;;;;;4985706;28;20050;-67
2021/06/16 08:52:38;;;;;;;7.18;3.78;;;14.10;92.40;;;;;;4988938;28;20030;-67
2021/06/16 08:55:10;;;;;;;8.98;4.05;;;14.00;92.60;;;;;;4989015;28;20034;-70
2021/06/16 08:57:39;;;;;;;11.35;5.35;;;14.00;92.40;;;;;;4990137;28;20025;-70
2021/06/16 09:00:08;;;;;;;9.65;4.60;;;13.90;92.70;;;;;;4989098;28;20397;-72
2021/06/16 09:02:35;;;;;;;10.27;4.28;;;13.90;93.70;;;;;;4989893;28;20462;-70
2021/06/16 09:05:03;;;;;;;9.68;4.93;;;13.80;93.10;;;;;;4987894;28;20089;-73
2021/06/16 09:07:33;;;;;;;8.27;4.60;;;13.90;92.30;;;;;;4986587;28;20037;-66
2021/06/16 09:10:15;;;;;;;6.93;4.75;;;13.80;92.30;;;;;;4989357;28;20030;-71
2021/06/16 09:12:46;;;;;;;11.38;5.38;;;13.80;92.70;;;;;;4984541;28;20030;-69
2021/06/16 09:15:19;;;;;;;9.38;5.50;;;13.80;92.90;;;;;;4988215;28;20040;-72
2021/06/16 09:18:06;;;;;;;9.07;6.10;;;13.80;93.60;;;;;;4979627;28;20489;-71
2021/06/16 09:20:36;;;;;;;6.68;5.47;;;13.80;93.50;;;;;;4983753;28;20026;-74
2021/06/16 09:23:19;;;;;;;7.40;5.10;;;13.70;93.80;;;;;;4972083;28;20026;-76
2021/06/16 09:26:10;;;;;;;8.02;5.13;;;13.50;94.20;;;;;;4984016;28;20033;-68
2021/06/16 09:28:40;;;;;;;9.18;5.75;;;13.30;94.50;;;;;;4979101;28;20441;-70
2021/06/16 09:31:10;;;;;;;12.30;6.55;;;13.20;95.00;;;;;;4989088;28;20065;-74
2021/06/16 09:33:37;;;;;;;10.00;6.45;;;13.10;95.50;;;;;;4986188;28;20481;-72
2021/06/16 09:36:17;;;;;;;10.85;7.50;;;13.10;95.50;;;;;;4969568;28;20389;-69
2021/06/16 09:38:46;;;;;;;10.35;6.47;;;13.10;96.00;;;;;;4977700;28;20077;-71
2021/06/16 09:41:19;;;;;;;10.38;5.50;;;13.20;95.90;;;;;;4989596;28;20018;-74
2021/06/16 09:43:47;;;;;;;8.18;5.47;;;13.20;94.30;;;;;;4986268;28;20031;-71
2021/06/16 09:46:15;;;;;;;10.15;6.05;;;13.20;94.90;;;;;;4965653;28;20576;-71
2021/06/16 09:48:43;;;;;;;7.15;5.70;;;13.10;95.60;;;;;;4964853;28;20458;-71
2021/06/16 09:51:33;;;;;;;7.88;5.80;;;13.00;95.50;;;;;;4985339;28;20038;-72
2021/06/16 09:54:11;;;;;;;10.18;6.97;;;12.90;95.80;;;;;;4983163;28;20050;-70
2021/06/16 09:56:41;;;;;;;9.20;6.35;;;12.90;95.70;;;;;;4966527;28;20504;-71
2021/06/16 09:59:09;;;;;;;9.98;6.82;;;12.80;95.50;;;;;;4985839;28;20466;-70
2021/06/16 10:01:51;;;;;;;13.35;11.15;;;12.80;95.40;;;;;;4985963;28;20061;-76
2021/06/16 10:04:55;;;;;;;15.50;11.68;;;12.70;95.50;;;;;;4986089;28;20085;-75
2021/06/16 10:07:29;;;;;;;13.05;8.15;;;12.50;96.00;;;;;;4984512;28;20030;-69
2021/06/16 10:10:03;;;;;;;10.05;7.25;;;12.40;96.20;;;;;;4983931;28;20034;-70
2021/06/16 10:12:35;;;;;;;13.38;6.97;;;12.30;96.20;;;;;;4986050;28;20069;-72
2021/06/16 10:15:06;;;;;;;10.77;7.63;;;12.30;96.40;;;;;;4980169;28;20027;-77
2021/06/16 10:17:33;;;;;;;12.43;7.43;;;12.30;96.50;;;;;;4985007;28;20033;-76
2021/06/16 10:20:00;;;;;;;9.20;6.78;;;12.20;97.00;;;;;;4985314;28;20489;-69
2021/06/16 10:22:27;;;;;;;9.38;7.65;;;12.20;97.00;;;;;;4986342;28;20022;-77
2021/06/16 10:24:55;;;;;;;14.05;8.60;;;12.20;97.50;;;;;;4982433;28;20030;-71
2021/06/16 10:27:32;;;;;;;11.23;7.35;;;12.10;97.40;;;;;;4968370;28;20085;-71
2021/06/16 10:30:26;;;;;;;11.68;8.50;;;12.10;97.40;;;;;;4978159;28;20049;-73
2021/06/16 10:32:53;;;;;;;14.07;8.73;;;12.10;97.80;;;;;;4973828;28;20042;-77
2021/06/16 10:35:26;;;;;;;15.60;12.30;;;12.10;97.70;;;;;;4981128;28;20034;-75
2021/06/16 10:38:01;;;;;;;;;;;12.20;97.80;;;;;;4976940;28;20030;-76
2021/06/16 10:40:30;;;;;;;10.20;7.60;;;12.30;97.90;;;;;;4962330;28;20001;-75
2021/06/16 10:43:03;;;;;;;13.68;8.00;;;12.50;97.40;;;;;;4959418;28;20126;-69
2021/06/16 10:45:46;;;;;;;11.38;8.35;;;12.60;97.50;;;;;;4977566;28;20041;-75
2021/06/16 10:48:15;;;;;;;10.18;7.28;;;12.60;97.50;;;;;;4981045;23;20053;-73
2021/06/16 10:50:50;;;;;;;13.27;7.95;;;12.70;97.60;;;;;;5019103;28;20028;-74
2021/06/16 10:53:23;;;;;;;21.73;9.43;;;12.70;97.40;;;;;;5024494;28;20507;-76
2021/06/16 10:55:57;;;;;;;19.08;9.57;;;12.60;97.40;;;;;;5007696;28;20046;-69
2021/06/16 10:58:31;;;;;;;19.83;10.55;;;12.50;97.50;;;;;;5022134;28;20480;-75
2021/06/16 11:01:20;;;;;;;23.42;11.23;;;12.40;98.00;;;;;;4674344;28;10000298;-69
2021/06/16 11:03:50;;;;;;;20.40;10.10;;;12.50;97.60;;;;;;5020241;28;20021;-74
2021/06/16 11:06:36;;;;;;;20.45;10.23;;;12.50;97.60;;;;;;5004386;28;20084;-70
2021/06/16 11:09:11;;;;;;;17.85;9.65;;;12.50;96.90;;;;;;5023890;28;20032;-68
2021/06/16 11:11:51;;;;;;;16.83;10.55;;;12.60;96.40;;;;;;5025707;28;20018;-76
2021/06/16 11:14:47;;;;;;;15.30;10.05;;;12.50;96.80;;;;;;5001461;28;20026;-77
2021/06/16 11:17:33;;;;;;;17.75;11.07;;;12.50;97.30;;;;;;4989873;28;20030;-74
2021/06/16 11:20:04;;;;;;;16.90;11.05;;;12.50;97.30;;;;;;5024975;28;20025;-75
2021/06/16 11:22:32;;;;;;;17.38;10.60;;;12.40;97.40;;;;;;5010824;28;20121;-76
2021/06/16 11:25:13;;;;;;;14.38;10.50;;;12.40;97.70;;;;;;5025615;28;20176;-76
2021/06/16 11:27:58;;;;;;;13.05;9.48;;;12.40;97.80;;;;;;5025263;28;20105;-70
2021/06/16 11:30:39;;;;;;;14.15;10.15;;;12.40;97.60;;;;;;5023165;28;20060;-68
2021/06/16 11:33:28;;;;;;;27.55;12.50;;;12.50;97.40;;;;;;5024431;28;20036;-74
2021/06/16 11:35:59;;;;;;;15.65;12.00;;;12.50;97.00;;;;;;5015889;28;20064;-74
2021/06/16 11:38:52;;;;;;;22.27;13.30;;;12.50;96.50;;;;;;5014369;28;20077;-68
2021/06/16 11:41:22;;;;;;;19.20;12.85;;;12.40;96.90;;;;;;5025612;28;20589;-73
2021/06/16 11:43:55;;;;;;;17.95;12.52;;;12.40;97.00;;;;;;5024309;28;20518;-70
2021/06/16 11:46:35;;;;;;;16.98;12.27;;;12.40;97.00;;;;;;5001829;28;20108;-75
2021/06/16 11:49:11;;;;;;;15.95;12.30;;;12.30;97.00;;;;;;5024610;28;20034;-74
2021/06/16 11:51:58;;;;;;;19.67;12.25;;;12.20;97.30;;;;;;5024956;28;20084;-72
2021/06/16 11:54:36;;;;;;;17.40;12.35;;;12.10;97.30;;;;;;5023813;28;20025;-75
2021/06/16 11:57:07;;;;;;;23.52;13.10;;;12.00;97.10;;;;;;5030159;28;20510;-69
2021/06/16 11:59:43;;;;;;;25.70;15.13;;;11.80;97.30;;;;;;5027630;28;20026;-71
2021/06/16 12:02:29;;;;;;;25.27;12.95;;;11.70;97.50;;;;;;5022731;28;20025;-75
2021/06/16 12:04:57;;;;;;;18.17;11.30;;;11.70;97.30;;;;;;5007561;28;20321;-70
2021/06/16 12:07:30;;;;;;;18.75;10.65;;;11.70;96.80;;;;;;5020019;28;20025;-72
2021/06/16 12:10:03;;;;;;;18.15;11.10;;;11.80;96.80;;;;;;5026051;28;20104;-76
2021/06/16 12:12:50;;;;;;;15.32;10.95;;;11.80;96.80;;;;;;5024936;28;20147;-72
2021/06/16 12:15:22;;;;;;;14.38;10.10;;;11.90;97.10;;;;;;5011318;28;20056;-75
2021/06/16 12:17:59;;;;;;;11.90;9.88;;;11.90;97.30;;;;;;5014561;28;20507;-72
2021/06/16 12:20:29;;;;;;;15.02;10.60;;;11.90;97.70;;;;;;5021914;28;20637;-72
2021/06/16 12:22:57;;;;;;;14.00;9.73;;;11.90;97.90;;;;;;5025558;28;20034;-71
2021/06/16 12:25:33;;;;;;;13.50;10.27;;;11.90;98.10;;;;;;5018964;28;20030;-76
2021/06/16 12:28:01;;;;;;;13.65;9.63;;;11.80;98.30;;;;;;5023502;28;20040;-75
2021/06/16 12:30:35;;;;;;;12.25;10.02;;;11.80;98.40;;;;;;5025049;28;20547;-71
2021/06/16 12:36:11;;;;;;;17.60;9.32;;;11.90;98.30;;;;;;5022524;28;20030;-76
2021/06/16 12:38:40;;;;;;;11.68;8.75;;;11.90;98.40;;;;;;5024023;28;21426;-74
2021/06/16 12:41:25;;;;;;;11.57;9.07;;;12.00;98.30;;;;;;5022348;28;20499;-76
2021/06/16 12:43:54;;;;;;;12.60;8.38;;;12.00;98.30;;;;;;5025291;28;20029;-70
2021/06/16 12:46:21;;;;;;;10.63;9.48;;;12.00;98.50;;;;;;5004193;28;20026;-70
2021/06/16 12:48:47;;;;;;;11.15;8.20;;;11.90;98.70;;;;;;5024352;28;20044;-70
2021/06/16 12:51:14;;;;;;;12.85;8.65;;;11.90;98.70;;;;;;5027296;28;20124;-72
2021/06/16 12:53:42;;;;;;;11.65;10.45;;;11.90;98.90;;;;;;5027880;28;20084;-71
2021/06/16 12:56:09;;;;;;;18.02;14.23;;;11.80;98.80;;;;;;5028095;28;20014;-75
2021/06/16 12:58:47;;;;;;;20.75;18.05;;;11.80;99.10;;;;;;5026232;28;20022;-72